createdAt,value
2017-01-05T00:00:49.593Z,0
2017-01-05T00:01:59.875Z,0
2017-01-05T00:03:10.191Z,0
2017-01-05T00:04:20.604Z,0
2017-01-05T00:05:30.857Z,0
2017-01-05T00:06:40.303Z,0
2017-01-05T00:07:50.152Z,0
2017-01-05T00:09:00.446Z,0
2017-01-05T00:10:10.330Z,0
2017-01-05T00:11:20.591Z,0
2017-01-05T00:12:30.475Z,0
2017-01-05T00:13:40.736Z,0
2017-01-05T00:14:50.681Z,0
2017-01-05T00:16:00.921Z,0
2017-01-05T00:17:10.789Z,0
2017-01-05T00:18:21.043Z,0
2017-01-05T00:19:30.925Z,0
2017-01-05T00:20:41.186Z,0
2017-01-05T00:21:51.039Z,0
2017-01-05T00:23:01.492Z,0
2017-01-05T00:24:11.331Z,0
2017-01-05T00:25:21.234Z,0
2017-01-05T00:26:31.264Z,0
2017-01-05T00:27:41.578Z,0
2017-01-05T00:28:51.882Z,0
2017-01-05T00:30:01.732Z,0
2017-01-05T00:31:11.601Z,0
2017-01-05T00:32:21.585Z,0
2017-01-05T00:33:31.864Z,0
2017-01-05T00:34:42.151Z,0
2017-01-05T00:35:52.403Z,0
2017-01-05T00:37:02.242Z,0
2017-01-05T00:38:12.594Z,0
2017-01-05T00:39:22.872Z,0
2017-01-05T00:40:32.417Z,0
2017-01-05T00:41:42.776Z,0
2017-01-05T00:42:53.117Z,0
2017-01-05T00:44:02.958Z,0
2017-01-05T00:45:13.288Z,0
2017-01-05T00:46:23.558Z,0
2017-01-05T00:47:33.442Z,0
2017-01-05T00:48:43.715Z,0
2017-01-05T00:49:53.999Z,0
2017-01-05T00:51:03.955Z,0
2017-01-05T00:52:14.362Z,0
2017-01-05T00:53:23.815Z,0
2017-01-05T00:54:34.120Z,0
2017-01-05T00:55:44.358Z,0
2017-01-05T00:56:54.660Z,0
2017-01-05T00:58:04.999Z,0
2017-01-05T00:59:14.483Z,0
2017-01-05T01:00:24.717Z,0
2017-01-05T01:01:34.974Z,0
2017-01-05T01:02:44.790Z,0
2017-01-05T01:03:54.229Z,0
2017-01-05T01:05:04.476Z,0
2017-01-05T01:06:14.314Z,0
2017-01-05T01:07:24.567Z,0
2017-01-05T01:08:34.834Z,0
2017-01-05T01:09:45.072Z,0
2017-01-05T01:10:55.046Z,0
2017-01-05T01:12:04.891Z,0
2017-01-05T01:13:15.174Z,0
2017-01-05T01:14:25.489Z,0
2017-01-05T01:15:35.872Z,0
2017-01-05T01:16:45.335Z,0
2017-01-05T01:17:55.189Z,0
2017-01-05T01:19:05.592Z,0
2017-01-05T01:20:16.062Z,0
2017-01-05T01:21:26.321Z,0
2017-01-05T01:22:36.559Z,0
2017-01-05T01:23:46.920Z,0
2017-01-05T01:24:57.264Z,0
2017-01-05T01:26:07.637Z,0
2017-01-05T01:27:17.516Z,0
2017-01-05T01:28:27.755Z,0
2017-01-05T01:29:37.202Z,0
2017-01-05T01:30:47.064Z,0
2017-01-05T01:31:56.977Z,0
2017-01-05T01:33:06.914Z,0
2017-01-05T01:34:17.150Z,0
2017-01-05T01:35:27.549Z,0
2017-01-05T01:36:37.938Z,0
2017-01-05T01:37:48.212Z,0
2017-01-05T01:38:58.468Z,0
2017-01-05T01:40:08.755Z,0
2017-01-05T01:41:19.105Z,0
2017-01-05T01:42:28.950Z,0
2017-01-05T01:43:38.809Z,0
2017-01-05T01:44:49.126Z,0
2017-01-05T01:45:59.001Z,0
2017-01-05T01:47:08.905Z,0
2017-01-05T01:48:19.169Z,0
2017-01-05T01:49:29.053Z,0
2017-01-05T01:50:39.328Z,0
2017-01-05T01:51:49.591Z,0
2017-01-05T01:52:59.866Z,0
2017-01-05T01:54:09.714Z,0
2017-01-05T01:55:20.019Z,0
2017-01-05T01:56:30.321Z,0
2017-01-05T01:57:40.574Z,0
2017-01-05T01:58:50.615Z,0
2017-01-05T02:00:00.470Z,0
2017-01-05T02:01:10.318Z,0
2017-01-05T02:02:20.169Z,0
2017-01-05T02:03:30.493Z,0
2017-01-05T02:04:40.395Z,0
2017-01-05T02:05:50.283Z,0
2017-01-05T02:07:00.180Z,0
2017-01-05T02:08:10.462Z,0
2017-01-05T02:09:20.340Z,0
2017-01-05T02:10:30.609Z,0
2017-01-05T02:11:40.508Z,0
2017-01-05T02:12:50.791Z,0
2017-01-05T02:14:01.136Z,0
2017-01-05T02:15:11.415Z,0
2017-01-05T02:16:21.268Z,0
2017-01-05T02:17:31.588Z,0
2017-01-05T02:18:41.521Z,0
2017-01-05T02:19:50.635Z,0
2017-01-05T02:21:00.875Z,0
2017-01-05T02:22:11.147Z,0
2017-01-05T02:23:21.479Z,0
2017-01-05T02:24:31.727Z,0
2017-01-05T02:25:41.631Z,0
2017-01-05T02:26:51.891Z,0
2017-01-05T02:28:01.726Z,0
2017-01-05T02:29:11.975Z,0
2017-01-05T02:30:22.302Z,0
2017-01-05T02:31:31.736Z,0
2017-01-05T02:32:41.991Z,0
2017-01-05T02:33:52.235Z,0
2017-01-05T02:35:01.889Z,0
2017-01-05T02:36:11.809Z,0
2017-01-05T02:37:22.123Z,0
2017-01-05T02:38:32.379Z,0
2017-01-05T02:39:42.622Z,0
2017-01-05T02:40:52.870Z,0
2017-01-05T02:42:02.710Z,0
2017-01-05T02:43:12.558Z,0
2017-01-05T02:44:22.825Z,0
2017-01-05T02:45:33.078Z,0
2017-01-05T02:46:42.110Z,0
2017-01-05T02:47:51.609Z,0
2017-01-05T02:49:01.930Z,0
2017-01-05T02:50:12.296Z,0
2017-01-05T02:51:22.559Z,0
2017-01-05T02:52:32.488Z,0
2017-01-05T02:53:42.337Z,0
2017-01-05T02:54:52.657Z,0
2017-01-05T02:56:02.635Z,0
2017-01-05T02:57:12.964Z,0
2017-01-05T02:58:22.840Z,0
2017-01-05T02:59:33.281Z,0
2017-01-05T03:00:43.566Z,0
2017-01-05T03:01:53.830Z,0
2017-01-05T03:03:03.672Z,0
2017-01-05T03:04:14.021Z,0
2017-01-05T03:05:24.437Z,0
2017-01-05T03:06:34.742Z,0
2017-01-05T03:07:44.597Z,0
2017-01-05T03:08:54.949Z,0
2017-01-05T03:10:04.492Z,0
2017-01-05T03:11:14.409Z,0
2017-01-05T03:12:24.436Z,0
2017-01-05T03:13:33.886Z,0
2017-01-05T03:14:44.213Z,0
2017-01-05T03:15:54.079Z,0
2017-01-05T03:17:04.035Z,0
2017-01-05T03:18:14.350Z,0
2017-01-05T03:19:24.604Z,0
2017-01-05T03:20:35.074Z,0
2017-01-05T03:21:45.327Z,0
2017-01-05T03:22:55.570Z,0
2017-01-05T03:24:05.453Z,0
2017-01-05T03:25:15.708Z,0
2017-01-05T03:26:25.980Z,0
2017-01-05T03:27:35.855Z,0
2017-01-05T03:28:46.099Z,0
2017-01-05T03:29:55.596Z,0
2017-01-05T03:31:05.842Z,0
2017-01-05T03:32:15.289Z,0
2017-01-05T03:33:25.177Z,0
2017-01-05T03:34:35.428Z,0
2017-01-05T03:35:45.747Z,0
2017-01-05T03:36:56.003Z,0
2017-01-05T03:38:06.292Z,0
2017-01-05T03:39:16.530Z,0
2017-01-05T03:40:26.378Z,0
2017-01-05T03:41:36.795Z,0
2017-01-05T03:42:47.058Z,0
2017-01-05T03:43:57.382Z,0
2017-01-05T03:45:07.730Z,0
2017-01-05T03:46:18.014Z,0
2017-01-05T03:47:28.250Z,0
2017-01-05T03:48:38.493Z,0
2017-01-05T03:49:48.811Z,0
2017-01-05T03:50:59.072Z,0
2017-01-05T03:52:09.300Z,0
2017-01-05T03:53:19.250Z,0
2017-01-05T03:54:29.512Z,0
2017-01-05T03:55:39.395Z,0
2017-01-05T03:56:49.693Z,0
2017-01-05T03:57:59.960Z,0
2017-01-05T03:59:09.850Z,0
2017-01-05T04:00:20.077Z,0
2017-01-05T04:01:29.919Z,0
2017-01-05T04:02:39.367Z,0
2017-01-05T04:03:48.605Z,0
2017-01-05T04:04:58.877Z,0
2017-01-05T04:06:09.274Z,0
2017-01-05T04:07:19.599Z,0
2017-01-05T04:08:29.922Z,0
2017-01-05T04:09:39.789Z,0
2017-01-05T04:10:50.090Z,0
2017-01-05T04:11:59.986Z,0
2017-01-05T04:13:10.231Z,0
2017-01-05T04:14:20.462Z,0
2017-01-05T04:15:30.438Z,0
2017-01-05T04:16:40.673Z,0
2017-01-05T04:17:50.923Z,0
2017-01-05T04:19:01.215Z,0
2017-01-05T04:20:11.541Z,0
2017-01-05T04:21:21.424Z,0
2017-01-05T04:22:31.297Z,0
2017-01-05T04:23:41.182Z,0
2017-01-05T04:24:51.071Z,0
2017-01-05T04:26:01.357Z,0
2017-01-05T04:27:10.849Z,0
2017-01-05T04:28:21.139Z,0
2017-01-05T04:29:31.434Z,0
2017-01-05T04:30:41.289Z,0
2017-01-05T04:31:51.162Z,0
2017-01-05T04:33:01.399Z,0
2017-01-05T04:34:11.783Z,0
2017-01-05T04:35:22.108Z,0
2017-01-05T04:36:31.966Z,0
2017-01-05T04:37:41.408Z,0
2017-01-05T04:38:51.648Z,0
2017-01-05T04:40:01.081Z,0
2017-01-05T04:41:11.152Z,0
2017-01-05T04:42:21.405Z,0
2017-01-05T04:43:31.649Z,0
2017-01-05T04:44:41.897Z,0
2017-01-05T04:45:52.144Z,0
2017-01-05T04:47:02.500Z,0
2017-01-05T04:48:12.743Z,0
2017-01-05T04:49:21.475Z,0
2017-01-05T04:50:31.724Z,0
2017-01-05T04:51:41.603Z,0
2017-01-05T04:52:51.083Z,0
2017-01-05T04:54:01.455Z,0
2017-01-05T04:55:11.775Z,0
2017-01-05T04:56:21.629Z,0
2017-01-05T04:57:31.484Z,0
2017-01-05T04:58:41.751Z,0
2017-01-05T04:59:52.299Z,0
2017-01-05T05:01:02.551Z,0
2017-01-05T05:02:12.881Z,0
2017-01-05T05:03:22.860Z,0
2017-01-05T05:04:33.201Z,0
2017-01-05T05:05:43.518Z,0
2017-01-05T05:06:53.389Z,0
2017-01-05T05:08:03.658Z,0
2017-01-05T05:09:13.683Z,0
2017-01-05T05:10:23.532Z,0
2017-01-05T05:11:33.809Z,0
2017-01-05T05:12:44.045Z,0
2017-01-05T05:13:54.342Z,0
2017-01-05T05:15:04.587Z,0
2017-01-05T05:16:14.874Z,0
2017-01-05T05:17:24.392Z,0
2017-01-05T05:18:34.848Z,0
2017-01-05T05:19:44.729Z,0
2017-01-05T05:20:54.978Z,0
2017-01-05T05:22:04.857Z,0
2017-01-05T05:23:15.192Z,0
2017-01-05T05:24:25.527Z,0
2017-01-05T05:25:34.560Z,0
2017-01-05T05:26:44.813Z,0
2017-01-05T05:27:55.126Z,0
2017-01-05T05:29:04.999Z,0
2017-01-05T05:30:15.402Z,0
2017-01-05T05:31:25.652Z,0
2017-01-05T05:32:35.099Z,0
2017-01-05T05:33:45.338Z,0
2017-01-05T05:34:55.601Z,0
2017-01-05T05:36:05.512Z,0
2017-01-05T05:37:15.404Z,0
2017-01-05T05:38:25.316Z,0
2017-01-05T05:39:34.369Z,0
2017-01-05T05:40:44.679Z,0
2017-01-05T05:41:54.534Z,0
2017-01-05T05:43:04.909Z,0
2017-01-05T05:44:14.438Z,0
2017-01-05T05:45:24.686Z,0
2017-01-05T05:46:34.168Z,0
2017-01-05T05:47:43.604Z,0
2017-01-05T05:48:53.853Z,0
2017-01-05T05:50:04.212Z,0
2017-01-05T05:51:14.049Z,0
2017-01-05T05:52:24.345Z,0
2017-01-05T05:53:34.740Z,0
2017-01-05T05:54:45.031Z,0
2017-01-05T05:55:55.375Z,0
2017-01-05T05:57:04.845Z,0
2017-01-05T05:58:15.103Z,0
2017-01-05T05:59:25.402Z,0
2017-01-05T06:00:35.252Z,0
2017-01-05T06:01:45.109Z,0
2017-01-05T06:02:55.358Z,0
2017-01-05T06:04:05.597Z,0
2017-01-05T06:05:15.964Z,0
2017-01-05T06:06:26.343Z,0
2017-01-05T06:07:36.299Z,0
2017-01-05T06:08:46.170Z,0
2017-01-05T06:09:56.072Z,0
2017-01-05T06:11:06.342Z,0
2017-01-05T06:12:16.243Z,0
2017-01-05T06:13:26.179Z,0
2017-01-05T06:14:36.013Z,0
2017-01-05T06:15:45.878Z,0
2017-01-05T06:16:56.131Z,0
2017-01-05T06:18:06.034Z,0
2017-01-05T06:19:16.003Z,0
2017-01-05T06:20:25.892Z,0
2017-01-05T06:21:36.129Z,0
2017-01-05T06:22:46.027Z,0
2017-01-05T06:23:56.416Z,0
2017-01-05T06:25:06.359Z,0
2017-01-05T06:26:16.619Z,0
2017-01-05T06:27:26.513Z,0
2017-01-05T06:28:36.371Z,0
2017-01-05T06:29:46.305Z,0
2017-01-05T06:30:56.212Z,0
2017-01-05T06:32:06.061Z,0
2017-01-05T06:33:16.511Z,0
2017-01-05T06:34:26.846Z,0
2017-01-05T06:35:37.122Z,0
2017-01-05T06:36:47.570Z,0
2017-01-05T06:37:57.821Z,0
2017-01-05T06:39:08.058Z,0
2017-01-05T06:40:18.396Z,0
2017-01-05T06:41:28.707Z,4
2017-01-05T06:42:38.164Z,4
2017-01-05T06:43:48.026Z,0
2017-01-05T06:44:57.935Z,4
2017-01-05T06:46:07.896Z,4
2017-01-05T06:47:18.176Z,0
2017-01-05T06:48:28.435Z,4
2017-01-05T06:49:38.758Z,4
2017-01-05T06:50:49.132Z,4
2017-01-05T06:51:59.004Z,4
2017-01-05T06:53:08.851Z,8
2017-01-05T06:54:18.693Z,8
2017-01-05T06:55:28.562Z,12
2017-01-05T06:56:38.803Z,12
2017-01-05T06:57:49.213Z,16
2017-01-05T06:58:59.116Z,20
2017-01-05T07:00:09.407Z,20
2017-01-05T07:01:19.399Z,28
2017-01-05T07:02:29.654Z,32
2017-01-05T07:03:39.904Z,32
2017-01-05T07:04:50.266Z,40
2017-01-05T07:06:00.545Z,44
2017-01-05T07:07:10.826Z,52
2017-01-05T07:08:20.713Z,60
2017-01-05T07:09:30.581Z,68
2017-01-05T07:10:40.836Z,76
2017-01-05T07:11:50.696Z,80
2017-01-05T07:13:00.986Z,88
2017-01-05T07:14:10.936Z,96
2017-01-05T07:15:21.312Z,100
2017-01-05T07:16:31.785Z,104
2017-01-05T07:17:41.271Z,116
2017-01-05T07:18:51.144Z,128
2017-01-05T07:20:01.096Z,136
2017-01-05T07:21:11.392Z,152
2017-01-05T07:22:21.746Z,172
2017-01-05T07:23:31.627Z,188
2017-01-05T07:24:41.872Z,204
2017-01-05T07:25:52.123Z,228
2017-01-05T07:27:00.856Z,256
2017-01-05T07:28:11.180Z,280
2017-01-05T07:29:21.567Z,304
2017-01-05T07:30:31.560Z,332
2017-01-05T07:31:41.874Z,360
2017-01-05T07:32:52.111Z,388
2017-01-05T07:34:02.358Z,420
2017-01-05T07:35:11.821Z,456
2017-01-05T07:36:21.837Z,480
2017-01-05T07:37:32.124Z,516
2017-01-05T07:38:41.987Z,548
2017-01-05T07:39:51.940Z,584
2017-01-05T07:41:01.873Z,620
2017-01-05T07:42:11.715Z,656
2017-01-05T07:43:21.565Z,688
2017-01-05T07:44:31.003Z,712
2017-01-05T07:45:40.877Z,740
2017-01-05T07:46:51.152Z,768
2017-01-05T07:48:01.021Z,800
2017-01-05T07:49:11.264Z,848
2017-01-05T07:50:20.711Z,892
2017-01-05T07:51:30.557Z,956
2017-01-05T07:52:40.832Z,1000
2017-01-05T07:53:51.184Z,1036
2017-01-05T07:55:01.465Z,1088
2017-01-05T07:56:11.862Z,1136
2017-01-05T07:57:21.351Z,1208
2017-01-05T07:58:31.631Z,1268
2017-01-05T07:59:41.879Z,1344
2017-01-05T08:00:51.743Z,1428
2017-01-05T08:02:01.190Z,1508
2017-01-05T08:03:11.468Z,1604
2017-01-05T08:04:21.783Z,1672
2017-01-05T08:05:32.132Z,1592
2017-01-05T08:06:41.998Z,1492
2017-01-05T08:07:51.508Z,1468
2017-01-05T08:09:01.826Z,1488
2017-01-05T08:10:12.093Z,1512
2017-01-05T08:11:21.963Z,1592
2017-01-05T08:12:32.240Z,1732
2017-01-05T08:13:42.579Z,1816
2017-01-05T08:14:52.447Z,1852
2017-01-05T08:16:02.747Z,1820
2017-01-05T08:17:13.023Z,1840
2017-01-05T08:18:23.253Z,1888
2017-01-05T08:19:33.572Z,2028
2017-01-05T08:20:43.873Z,2192
2017-01-05T08:21:54.127Z,2328
2017-01-05T08:23:04.377Z,2336
2017-01-05T08:24:14.662Z,2348
2017-01-05T08:25:24.153Z,2376
2017-01-05T08:26:34.478Z,2512
2017-01-05T08:27:44.778Z,2680
2017-01-05T08:28:55.024Z,2740
2017-01-05T08:30:04.887Z,2704
2017-01-05T08:31:15.154Z,2636
2017-01-05T08:32:25.040Z,2716
2017-01-05T08:33:35.321Z,2888
2017-01-05T08:34:45.577Z,3068
2017-01-05T08:35:55.040Z,3292
2017-01-05T08:37:05.340Z,3544
2017-01-05T08:38:15.622Z,3800
2017-01-05T08:39:25.907Z,3876
2017-01-05T08:40:35.822Z,3844
2017-01-05T08:41:46.104Z,3724
2017-01-05T08:42:56.471Z,3640
2017-01-05T08:44:06.735Z,3628
2017-01-05T08:45:16.587Z,3648
2017-01-05T08:46:26.858Z,3656
2017-01-05T08:47:37.126Z,3664
2017-01-05T08:48:46.669Z,3624
2017-01-05T08:49:56.918Z,3584
2017-01-05T08:51:07.194Z,3540
2017-01-05T08:52:17.078Z,3512
2017-01-05T08:53:27.072Z,3492
2017-01-05T08:54:36.938Z,3468
2017-01-05T08:55:47.240Z,3444
2017-01-05T08:56:57.619Z,3444
2017-01-05T08:58:07.467Z,3468
2017-01-05T08:59:17.296Z,3508
2017-01-05T09:00:59.283Z,3584
2017-01-05T09:02:08.772Z,3656
2017-01-05T09:03:18.657Z,3844
2017-01-05T09:04:28.577Z,3928
2017-01-05T09:05:38.505Z,4196
2017-01-05T09:06:48.752Z,4364
2017-01-05T09:07:58.622Z,4256
2017-01-05T09:09:08.527Z,4216
2017-01-05T09:10:18.817Z,4372
2017-01-05T09:11:28.668Z,4368
2017-01-05T09:12:38.976Z,4536
2017-01-05T09:13:48.414Z,4540
2017-01-05T09:14:58.281Z,4688
2017-01-05T09:16:08.139Z,4880
2017-01-05T09:17:18.429Z,5536
2017-01-05T09:18:28.689Z,5768
2017-01-05T09:19:38.926Z,5508
2017-01-05T09:20:49.229Z,5436
2017-01-05T09:21:58.728Z,5804
2017-01-05T09:23:08.167Z,6004
2017-01-05T09:24:18.071Z,6152
2017-01-05T09:25:28.385Z,6188
2017-01-05T09:26:38.648Z,6344
2017-01-05T09:27:48.528Z,6228
2017-01-05T09:28:58.369Z,6124
2017-01-05T09:30:07.847Z,6176
2017-01-05T09:31:18.110Z,6180
2017-01-05T09:32:27.554Z,6284
2017-01-05T09:33:37.823Z,6476
2017-01-05T09:34:48.083Z,6540
2017-01-05T09:35:57.935Z,7428
2017-01-05T09:37:08.242Z,7628
2017-01-05T09:38:18.211Z,7956
2017-01-05T09:39:28.491Z,7092
2017-01-05T09:40:38.772Z,7468
2017-01-05T09:41:49.105Z,8336
2017-01-05T09:42:59.098Z,8020
2017-01-05T09:44:09.391Z,8964
2017-01-05T09:45:19.659Z,8272
2017-01-05T09:46:29.531Z,9400
2017-01-05T09:47:39.838Z,8160
2017-01-05T09:48:49.379Z,6268
2017-01-05T09:49:59.230Z,7468
2017-01-05T09:51:09.653Z,10732
2017-01-05T09:52:19.537Z,12320
2017-01-05T09:53:29.873Z,11320
2017-01-05T09:54:40.110Z,10916
2017-01-05T09:55:50.361Z,11048
2017-01-05T09:57:00.654Z,9820
2017-01-05T09:58:10.507Z,11420
2017-01-05T09:59:20.378Z,10320
2017-01-05T10:00:30.627Z,8532
2017-01-05T10:01:40.877Z,7464
2017-01-05T10:02:50.346Z,8860
2017-01-05T10:03:59.793Z,11156
2017-01-05T10:05:10.067Z,10272
2017-01-05T10:06:20.397Z,8140
2017-01-05T10:07:30.687Z,9076
2017-01-05T10:08:40.937Z,11892
2017-01-05T10:09:51.237Z,11856
2017-01-05T10:11:00.679Z,28544
2017-01-05T10:12:10.546Z,14304
2017-01-05T10:13:20.796Z,9716
2017-01-05T10:14:30.671Z,12400
2017-01-05T10:15:40.142Z,10668
2017-01-05T10:16:50.004Z,12740
2017-01-05T10:18:00.266Z,15208
2017-01-05T10:19:10.554Z,32416
2017-01-05T10:20:20.798Z,10148
2017-01-05T10:21:31.087Z,13752
2017-01-05T10:22:40.953Z,12976
2017-01-05T10:23:51.261Z,22464
2017-01-05T10:25:01.623Z,11940
2017-01-05T10:26:11.909Z,11600
2017-01-05T10:27:22.155Z,39232
2017-01-05T10:28:31.615Z,44288
2017-01-05T10:29:41.506Z,14520
2017-01-05T10:30:51.793Z,41664
2017-01-05T10:32:01.643Z,46656
2017-01-05T10:33:11.973Z,23552
2017-01-05T10:34:22.259Z,12428
2017-01-05T10:35:32.100Z,45568
2017-01-05T10:36:42.054Z,46624
2017-01-05T10:37:51.498Z,23488
2017-01-05T10:39:01.460Z,46496
2017-01-05T10:40:11.310Z,8412
2017-01-05T10:41:21.198Z,11828
2017-01-05T10:42:31.043Z,46080
2017-01-05T10:43:40.904Z,53120
2017-01-05T10:44:50.341Z,53344
2017-01-05T10:46:00.240Z,17792
2017-01-05T10:47:10.544Z,14592
2017-01-05T10:48:20.805Z,11740
2017-01-05T10:49:31.163Z,9292
2017-01-05T10:50:41.087Z,12340
2017-01-05T10:51:51.394Z,12680
2017-01-05T10:53:01.353Z,47328
2017-01-05T10:54:11.228Z,57184
2017-01-05T10:55:21.551Z,19904
2017-01-05T10:56:31.807Z,46656
2017-01-05T10:57:41.709Z,40128
2017-01-05T10:58:51.550Z,23296
2017-01-05T11:00:00.988Z,42112
2017-01-05T11:01:10.939Z,49184
2017-01-05T11:02:21.234Z,46880
2017-01-05T11:03:31.486Z,33216
2017-01-05T11:04:41.375Z,12064
2017-01-05T11:05:51.341Z,10744
2017-01-05T11:07:01.624Z,11324
2017-01-05T11:08:11.543Z,45728
2017-01-05T11:09:21.410Z,52768
2017-01-05T11:10:31.855Z,24864
2017-01-05T11:11:41.698Z,13020
2017-01-05T11:12:51.952Z,42496
2017-01-05T11:14:01.799Z,36224
2017-01-05T11:15:11.682Z,44512
2017-01-05T11:16:21.950Z,44032
2017-01-05T11:17:31.794Z,49728
2017-01-05T11:18:41.656Z,47104
2017-01-05T11:19:52.111Z,10472
2017-01-05T11:21:02.389Z,45344
2017-01-05T11:22:12.708Z,48096
2017-01-05T11:23:22.648Z,50240
2017-01-05T11:24:32.517Z,13840
2017-01-05T11:25:42.834Z,46624
2017-01-05T11:26:53.087Z,42720
2017-01-05T11:28:03.048Z,54400
2017-01-05T11:29:12.491Z,54016
2017-01-05T11:30:21.624Z,9468
2017-01-05T11:31:31.913Z,50368
2017-01-05T11:32:42.241Z,47840
2017-01-05T11:33:52.757Z,50048
2017-01-05T11:35:02.616Z,54208
2017-01-05T11:36:12.480Z,42944
2017-01-05T11:37:22.745Z,10700
2017-01-05T11:38:32.994Z,8628
2017-01-05T11:39:42.500Z,8912
2017-01-05T11:40:52.496Z,28832
2017-01-05T11:42:02.350Z,14956
2017-01-05T11:43:12.204Z,13164
2017-01-05T11:44:22.561Z,14072
2017-01-05T11:45:32.421Z,11932
2017-01-05T11:46:41.503Z,14636
2017-01-05T11:47:51.795Z,14828
2017-01-05T11:49:01.650Z,10284
2017-01-05T11:50:11.111Z,7288
2017-01-05T11:51:21.499Z,8504
2017-01-05T11:52:31.381Z,18336
2017-01-05T11:53:41.640Z,18048
2017-01-05T11:54:51.888Z,8444
2017-01-05T11:56:02.209Z,7280
2017-01-05T11:57:11.819Z,8564
2017-01-05T11:58:22.063Z,8724
2017-01-05T11:59:32.548Z,8552
2017-01-05T12:00:42.425Z,8072
2017-01-05T12:01:52.730Z,8584
2017-01-05T12:03:03.332Z,12192
2017-01-05T12:04:12.828Z,14604
2017-01-05T12:05:22.740Z,15132
2017-01-05T12:06:32.171Z,11744
2017-01-05T12:07:42.491Z,10096
2017-01-05T12:08:52.376Z,9012
2017-01-05T12:10:01.855Z,10888
2017-01-05T12:11:12.108Z,10312
2017-01-05T12:12:22.385Z,10988
2017-01-05T12:13:32.291Z,11124
2017-01-05T12:14:42.136Z,10368
2017-01-05T12:15:51.987Z,10344
2017-01-05T12:17:02.258Z,11716
2017-01-05T12:18:12.503Z,14156
2017-01-05T12:19:22.767Z,13992
2017-01-05T12:20:32.662Z,11696
2017-01-05T12:21:42.519Z,11248
2017-01-05T12:22:52.360Z,10152
2017-01-05T12:24:02.605Z,8948
2017-01-05T12:25:12.930Z,9792
2017-01-05T12:26:23.217Z,7952
2017-01-05T12:27:33.468Z,10264
2017-01-05T12:28:43.723Z,11684
2017-01-05T12:29:53.598Z,9488
2017-01-05T12:31:03.435Z,7616
2017-01-05T12:32:13.301Z,7620
2017-01-05T12:33:23.583Z,6972
2017-01-05T12:34:33.859Z,7652
2017-01-05T12:35:43.702Z,8216
2017-01-05T12:36:53.944Z,8408
2017-01-05T12:38:04.354Z,9564
2017-01-05T12:39:14.725Z,9064
2017-01-05T12:40:25.008Z,9000
2017-01-05T12:41:35.403Z,10988
2017-01-05T12:42:45.346Z,10192
2017-01-05T12:43:55.731Z,12116
2017-01-05T12:45:05.556Z,11368
2017-01-05T12:46:15.922Z,8252
2017-01-05T12:47:26.194Z,7436
2017-01-05T12:48:36.055Z,6732
2017-01-05T12:49:46.427Z,6624
2017-01-05T12:50:56.673Z,6452
2017-01-05T12:52:06.124Z,6668
2017-01-05T12:53:15.961Z,6640
2017-01-05T12:54:26.265Z,6040
2017-01-05T12:55:36.531Z,6304
2017-01-05T12:56:45.575Z,6416
2017-01-05T12:57:55.416Z,6904
2017-01-05T12:59:05.246Z,6980
2017-01-05T13:00:15.492Z,7048
2017-01-05T13:01:25.771Z,7056
2017-01-05T13:02:35.620Z,7556
2017-01-05T13:03:46.066Z,8696
2017-01-05T13:04:56.334Z,8928
2017-01-05T13:06:06.197Z,7440
2017-01-05T13:07:16.530Z,8136
2017-01-05T13:08:26.840Z,7396
2017-01-05T13:09:36.757Z,7584
2017-01-05T13:10:46.589Z,6644
2017-01-05T13:11:56.877Z,7032
2017-01-05T13:13:06.740Z,6488
2017-01-05T13:14:16.640Z,6100
2017-01-05T13:15:25.681Z,8452
2017-01-05T13:16:35.964Z,7120
2017-01-05T13:17:46.348Z,7124
2017-01-05T13:18:56.586Z,6856
2017-01-05T13:20:06.826Z,5276
2017-01-05T13:21:17.070Z,4596
2017-01-05T13:22:27.308Z,6308
2017-01-05T13:23:37.204Z,5708
2017-01-05T13:24:47.493Z,5804
2017-01-05T13:25:57.465Z,5660
2017-01-05T13:27:06.903Z,5604
2017-01-05T13:28:17.259Z,5368
2017-01-05T13:29:27.598Z,6028
2017-01-05T13:30:37.995Z,5788
2017-01-05T13:31:48.227Z,5128
2017-01-05T13:32:58.140Z,4332
2017-01-05T13:34:08.109Z,4656
2017-01-05T13:35:18.360Z,6080
2017-01-05T13:36:27.810Z,5620
2017-01-05T13:37:37.701Z,5612
2017-01-05T13:38:47.534Z,4356
2017-01-05T13:39:57.781Z,3696
2017-01-05T13:41:08.032Z,5224
2017-01-05T13:42:18.409Z,5868
2017-01-05T13:43:28.272Z,5208
2017-01-05T13:44:38.123Z,4500
2017-01-05T13:45:48.402Z,4572
2017-01-05T13:46:58.646Z,5408
2017-01-05T13:48:08.998Z,5084
2017-01-05T13:49:18.861Z,5108
2017-01-05T13:50:29.151Z,4892
2017-01-05T13:51:39.039Z,5780
2017-01-05T13:52:49.344Z,5316
2017-01-05T13:53:59.607Z,5400
2017-01-05T13:55:09.460Z,4564
2017-01-05T13:56:19.303Z,5096
2017-01-05T13:57:29.201Z,4656
2017-01-05T13:58:39.029Z,4440
2017-01-05T13:59:49.348Z,4812
2017-01-05T14:00:59.205Z,5344
2017-01-05T14:02:08.774Z,6972
2017-01-05T14:03:19.082Z,5524
2017-01-05T14:04:29.346Z,4632
2017-01-05T14:05:39.252Z,4000
2017-01-05T14:06:49.624Z,3844
2017-01-05T14:07:59.971Z,4384
2017-01-05T14:09:09.810Z,4528
2017-01-05T14:10:19.654Z,4784
2017-01-05T14:11:29.918Z,4252
2017-01-05T14:12:39.790Z,4248
2017-01-05T14:13:49.827Z,4860
2017-01-05T14:15:00.138Z,4232
2017-01-05T14:16:10.379Z,3756
2017-01-05T14:17:20.676Z,3420
2017-01-05T14:18:31.053Z,3556
2017-01-05T14:19:41.384Z,3004
2017-01-05T14:20:50.831Z,2624
2017-01-05T14:22:00.827Z,2292
2017-01-05T14:23:11.189Z,1924
2017-01-05T14:24:21.496Z,1672
2017-01-05T14:25:31.948Z,1636
2017-01-05T14:26:42.375Z,1772
2017-01-05T14:27:52.769Z,2024
2017-01-05T14:29:03.247Z,1836
2017-01-05T14:30:13.183Z,1708
2017-01-05T14:31:23.697Z,1476
2017-01-05T14:32:33.333Z,1392
2017-01-05T14:33:43.984Z,1308
2017-01-05T14:34:53.900Z,1244
2017-01-05T14:36:04.368Z,1336
2017-01-05T14:37:14.697Z,1324
2017-01-05T14:38:24.252Z,1304
2017-01-05T14:39:34.507Z,1452
2017-01-05T14:40:44.872Z,1428
2017-01-05T14:41:55.247Z,1400
2017-01-05T14:43:05.556Z,1400
2017-01-05T14:44:15.458Z,1372
2017-01-05T14:45:25.748Z,1320
2017-01-05T14:46:35.740Z,1312
2017-01-05T14:47:45.989Z,1312
2017-01-05T14:48:56.268Z,1284
2017-01-05T14:50:06.717Z,1244
2017-01-05T14:51:16.698Z,1212
2017-01-05T14:52:26.989Z,1176
2017-01-05T14:53:37.388Z,1144
2017-01-05T14:54:47.769Z,1100
2017-01-05T14:55:58.098Z,1052
2017-01-05T14:57:08.638Z,992
2017-01-05T14:58:18.534Z,952
2017-01-05T14:59:28.816Z,896
2017-01-05T15:00:38.351Z,856
2017-01-05T15:01:48.426Z,812
2017-01-05T15:02:58.349Z,780
2017-01-05T15:04:07.872Z,740
2017-01-05T15:05:17.784Z,704
2017-01-05T15:06:28.203Z,664
2017-01-05T15:07:38.522Z,628
2017-01-05T15:08:48.949Z,596
2017-01-05T15:09:58.506Z,568
2017-01-05T15:11:08.237Z,536
2017-01-05T15:12:18.282Z,496
2017-01-05T15:13:28.202Z,460
2017-01-05T15:14:38.661Z,416
2017-01-05T15:15:49.328Z,380
2017-01-05T15:16:59.530Z,360
2017-01-05T15:18:10.051Z,344
2017-01-05T15:19:20.540Z,312
2017-01-05T15:20:30.300Z,280
2017-01-05T15:21:40.719Z,228
2017-01-05T15:22:50.510Z,188
2017-01-05T15:24:00.923Z,156
2017-01-05T15:25:11.256Z,136
2017-01-05T15:26:21.788Z,116
2017-01-05T15:27:32.572Z,96
2017-01-05T15:28:42.450Z,84
2017-01-05T15:29:52.874Z,80
2017-01-05T15:31:02.876Z,72
2017-01-05T15:32:13.023Z,64
2017-01-05T15:33:23.638Z,52
2017-01-05T15:34:34.041Z,44
2017-01-05T15:35:44.540Z,36
2017-01-05T15:36:55.242Z,32
2017-01-05T15:38:05.909Z,28
2017-01-05T15:39:16.409Z,20
2017-01-05T15:40:27.024Z,20
2017-01-05T15:41:37.802Z,16
2017-01-05T15:42:48.577Z,16
2017-01-05T15:43:58.925Z,12
2017-01-05T15:45:08.931Z,12
2017-01-05T15:46:19.445Z,8
2017-01-05T15:47:30.206Z,8
2017-01-05T15:48:40.863Z,4
2017-01-05T15:49:51.697Z,4
2017-01-05T15:51:02.345Z,4
2017-01-05T15:52:12.859Z,4
2017-01-05T15:53:23.259Z,4
2017-01-05T15:54:34.566Z,4
2017-01-05T15:55:45.199Z,0
2017-01-05T15:56:56.162Z,4
2017-01-05T15:58:06.483Z,0
2017-01-05T15:59:17.303Z,0
2017-01-05T16:00:28.163Z,4
2017-01-05T16:01:38.840Z,0
2017-01-05T16:02:50.402Z,0
2017-01-05T16:04:02.009Z,0
2017-01-05T16:05:12.704Z,0
2017-01-05T16:06:22.924Z,4
2017-01-05T16:07:33.555Z,0
2017-01-05T16:08:44.286Z,0
2017-01-05T16:09:55.103Z,0
2017-01-05T16:11:05.100Z,0
2017-01-05T16:12:15.397Z,0
2017-01-05T16:13:25.834Z,0
2017-01-05T16:14:37.251Z,0
2017-01-05T16:15:48.694Z,0
2017-01-05T16:16:59.050Z,0
2017-01-05T16:18:09.299Z,0
2017-01-05T16:19:20.508Z,0